Xin Dan Dong — BPBY — position and weather

sailwx.info

Track history (hours):
 
Tides and Currents Weather Stations Pressure Air Temp Water Temp Dewpoint Dewpoint Depression Visibility Wind Speed Wind Dir Waves Ship Positions

Xin Dan Dong

Last reported at 2018-Feb-16 04:44 UTC. Time now 2018-Feb-20 07:41 UTC.
Position N 23°07' E 117°14'.

Length 263 m; draft 12.5 m.

Type: Ship. MMSI: 413153000.

Date/timePositionNaut miles runAvg speedWind from/ knotsBaromVisibWave heightAir tempDewpointWater temp
2018-Feb-16 04:44N 23°07' E 117°14'312.6
2018-Feb-16 04:30N 23°09' E 117°16'612.0
2018-Feb-16 04:00N 23°13' E 117°21'611.7
2018-Feb-16 03:30N 23°17' E 117°26'611.5
2018-Feb-16 03:00N 23°20' E 117°31'611.5
2018-Feb-16 02:30N 23°24' E 117°35'611.3
2018-Feb-16 02:00N 23°28' E 117°40'611.4
2018-Feb-16 01:30N 23°32' E 117°45'611.4
2018-Feb-16 01:00N 23°36' E 117°49'611.5
2018-Feb-16 00:30N 23°40' E 117°54'611.8
2018-Feb-16 00:00N 23°44' E 117°58'612.0
2018-Feb-15 23:29N 23°48' E 118°04'612.1
2018-Feb-15 23:00N 23°51' E 118°08'612.2
2018-Feb-15 22:29N 23°56' E 118°13'612.3
2018-Feb-15 22:00N 23°60' E 118°18'612.5
2018-Feb-15 21:30N 24°04' E 118°23'612.7
2018-Feb-15 21:00N 24°08' E 118°29'612.9
2018-Feb-15 20:30N 24°12' E 118°34'713.0
2018-Feb-15 20:00N 24°17' E 118°39'713.1
2018-Feb-15 19:30N 24°21' E 118°44'913.0
2018-Feb-15 18:47N 24°27' E 118°52'813.0
2018-Feb-15 18:12N 24°32' E 118°59'10912.4
2018-Feb-15 09:26N 25°53' E 120°19'1212.0
2018-Feb-15 08:25N 26°02' E 120°28'  
2018-Feb-08 07:30N 23°59' E 118°17'4312.3
2018-Feb-08 04:00N 23°30' E 117°43'  
Track history (hours):
 
Tides and Currents Weather Stations Pressure Air Temp Water Temp Dewpoint Dewpoint Depression Visibility Wind Speed Wind Dir Waves Ship Positions

Xin Dan Dong

Last reported at 2018-Feb-16 04:44 UTC. Time now 2018-Feb-20 07:41 UTC.
Position N 23°07' E 117°14'.

Length 263 m; draft 12.5 m.

Type: Ship. MMSI: 413153000.

Date/timePositionNaut miles runAvg speedWind from/ knotsBaromVisibWave heightAir tempDewpointWater temp
2018-Feb-16 04:44N 23°07' E 117°14'312.6
2018-Feb-16 04:30N 23°09' E 117°16'612.0
2018-Feb-16 04:00N 23°13' E 117°21'611.7
2018-Feb-16 03:30N 23°17' E 117°26'611.5
2018-Feb-16 03:00N 23°20' E 117°31'611.5
2018-Feb-16 02:30N 23°24' E 117°35'611.3
2018-Feb-16 02:00N 23°28' E 117°40'611.4
2018-Feb-16 01:30N 23°32' E 117°45'611.4
2018-Feb-16 01:00N 23°36' E 117°49'611.5
2018-Feb-16 00:30N 23°40' E 117°54'611.8
2018-Feb-16 00:00N 23°44' E 117°58'612.0
2018-Feb-15 23:29N 23°48' E 118°04'612.1
2018-Feb-15 23:00N 23°51' E 118°08'612.2
2018-Feb-15 22:29N 23°56' E 118°13'612.3
2018-Feb-15 22:00N 23°60' E 118°18'612.5
2018-Feb-15 21:30N 24°04' E 118°23'612.7
2018-Feb-15 21:00N 24°08' E 118°29'612.9
2018-Feb-15 20:30N 24°12' E 118°34'713.0
2018-Feb-15 20:00N 24°17' E 118°39'713.1
2018-Feb-15 19:30N 24°21' E 118°44'913.0
2018-Feb-15 18:47N 24°27' E 118°52'813.0
2018-Feb-15 18:12N 24°32' E 118°59'10912.4
2018-Feb-15 09:26N 25°53' E 120°19'1212.0
2018-Feb-15 08:25N 26°02' E 120°28'  
2018-Feb-08 07:30N 23°59' E 118°17'4312.3
2018-Feb-08 04:00N 23°30' E 117°43'  

Dump ship's entire track history